KHAI

Three Rivers Municipal Dr Haines Airport

Three Rivers, Michigan, USA
METAR KHAI 271155Z AUTO 00000KT 10SM CLR 20/17 A2990 RMK AO2 T01990173 10199 20156
Observed Flight Rules
May-27 @ 11:55 UTC (11 minutes ago) Visual Flight Rules
Visibility Clouds
10 miles
  • Clear skies
Temperatures Readings
Current 20°C / 68°F
Dewpoint 17°C / 63°F
Humidity 83%
Altimeter 29.9" Hg
Pressure 1013 hPa
Elevation 251
METAR KHAI 271155Z AUTO 00000KT 10SM CLR 20/17 A2990 RMK AO2 T01990173 10199 20156
Observed Flight Rules
May-27 @ 11:55 UTC
(11 minutes ago)
VFR
Clouds
  • Clear skies
Temperature Dewpoint
20°C / 68°F 17°C / 63°F
Humidity Altimeter Pressure
83% 29.9" Hg 1013 hPa